Saskatoon John G. Diefenbaker International Airport
CYXE : now visible

Airfield :











YOU CAN JOIN US ON...

 
LOGIN :

Register | Disclaimer

   EN    FR    IT 

 









Legend :    VFR   Marginal VFR   IFR   Intensive IFR   Very Intensive IFR
Visi :
Ceiling :
>= 8 km
>= 3000ft
5 to 8 km
1000 to 3000 ft
1500m to 5 km
500 to 1000 ft
800 to 1500m
200 to 500 ft
< 800m
< 200 ft
Symbols :   Thunderstorms  Fog  Heavy snow  Heavy precipitations  Wind > 20 kt







- Airport Elevation : 1653 ft
- IATA code : YXE


CYXE - Saskatoon John G. Diefenbaker International

CURRENT METAR :
  • 201620Z 27005KT 10SM OVC005 11/10 A2979 RMK ST8 BR SLP101 DENSITY ALT 1800FT

EXPIRED METARs :
  • 201600Z 27006KT 8SM OVC007 11/10 A2980 RMK ST8 BR SLP102 DENSITY ALT 1800FT
  • 201526Z 28009KT 8SM OVC008 11/10 A2977 RMK ST8 BR SLP094 DENSITY ALT 1800FT
  • 201500Z 30010KT 6SM BR OVC005 11/10 A2977 RMK ST8 SLP095 DENSITY ALT 1800FT
  • 201341Z 26006KT 5SM BR BKN004 OVC016 11/11 A2976 RMK ST5SC3 SLP089 DENSITY ALT 1800FT

TAF AMD TAF CYXE
Valid from the 20 at 16:00 until the 21 at 12:00 UTC


201607Z 2016/2112 29006KT P6SM OVC007
TEMPO 2016/2018 BKN012
FM201800 29010KT P6SM SCT015
TEMPO 2018/2019 BKN015
FM202100 31012KT P6SM SCT040
FM211000 30010KT P6SM FEW006 RMK NXT FCST BY 201800Z
No reported NOTAMs for that airfield.



MET'MAP, your aeronautical weather chart ! - Copyright ORBIFLY December 2007 - Disclaimer

ORBIFLY MET'MAP TEAM :

Programming & Development : Alexandra Zaïnal
Concept & Development : Baudouin d'Aumeries
Co-Development & Prog : Marc-Olivier Méhu
Technical & hardware support : Manuel Goepfert

Contact : metmap@orbifly.com




SOURCES & CREDITS :

   NOAA       Earth
Advisory